Nissho Maru No.18 — JL6369 — position and weather

sailwx.info

Track history (hours):
 
Tides and Currents Weather Stations Pressure Air Temp Water Temp Dewpoint Dewpoint Depression Visibility Wind Speed Wind Dir Waves Ship Positions

Nissho Maru No.18

Last reported at 2016-May-25 12:20 UTC. Time now 2016-May-25 12:57 UTC.
Position N 34°36' E 134°57'.

Length 65 m; draft 4 m.

Type: Tanker. MMSI: 431500465.

Date/timePositionNaut miles runAvg speedWind from/ knotsBaromVisibWave heightAir tempDewpointWater temp
2016-May-25 12:20N 34°36' E 134°57'4 0.2
2016-May-24 15:15N 34°35' E 134°52'811.3
2016-May-24 14:34N 34°38' E 135°01'10 9.7
2016-May-24 13:33N 34°28' E 135°03'1211.6
2016-May-24 12:31N 34°17' E 134°60'1110.9
2016-May-24 11:33N 34°08' E 135°07'1 1.1
2016-May-24 10:32N 34°07' E 135°08'0 0.0
2016-May-24 09:33N 34°07' E 135°08'0 0.0
2016-May-24 08:33N 34°07' E 135°08'0 0.0
2016-May-24 07:33N 34°07' E 135°08'0 0.0
2016-May-24 06:32N 34°07' E 135°08'1 0.2
2016-May-24 00:33N 34°08' E 135°06'  
2016-May-21 13:29N 34°03' E 135°03'5 5.3
2016-May-21 12:32N 34°07' E 135°08'0 0.0
2016-May-21 11:33N 34°07' E 135°08'0 0.0
2016-May-21 10:33N 34°07' E 135°08'0 0.0
2016-May-21 09:33N 34°07' E 135°08'0 0.0
2016-May-21 08:33N 34°07' E 135°08'0 0.0
2016-May-21 07:33N 34°07' E 135°08'0 0.0
2016-May-21 06:33N 34°07' E 135°08'1 0.5
2016-May-21 05:22N 34°07' E 135°07'0 0.0
2016-May-20 23:32N 34°07' E 135°07'2 1.7
2016-May-20 22:30N 34°09' E 135°06'1010.2
2016-May-20 21:33N 34°16' E 134°59'1010.1
2016-May-20 20:33N 34°26' E 135°00'1010.1
2016-May-20 19:33N 34°36' E 135°02'  
Track history (hours):
 
Tides and Currents Weather Stations Pressure Air Temp Water Temp Dewpoint Dewpoint Depression Visibility Wind Speed Wind Dir Waves Ship Positions

Nissho Maru No.18

Last reported at 2016-May-25 12:20 UTC. Time now 2016-May-25 12:57 UTC.
Position N 34°36' E 134°57'.

Length 65 m; draft 4 m.

Type: Tanker. MMSI: 431500465.

Date/timePositionNaut miles runAvg speedWind from/ knotsBaromVisibWave heightAir tempDewpointWater temp
2016-May-25 12:20N 34°36' E 134°57'4 0.2
2016-May-24 15:15N 34°35' E 134°52'811.3
2016-May-24 14:34N 34°38' E 135°01'10 9.7
2016-May-24 13:33N 34°28' E 135°03'1211.6
2016-May-24 12:31N 34°17' E 134°60'1110.9
2016-May-24 11:33N 34°08' E 135°07'1 1.1
2016-May-24 10:32N 34°07' E 135°08'0 0.0
2016-May-24 09:33N 34°07' E 135°08'0 0.0
2016-May-24 08:33N 34°07' E 135°08'0 0.0
2016-May-24 07:33N 34°07' E 135°08'0 0.0
2016-May-24 06:32N 34°07' E 135°08'1 0.2
2016-May-24 00:33N 34°08' E 135°06'  
2016-May-21 13:29N 34°03' E 135°03'5 5.3
2016-May-21 12:32N 34°07' E 135°08'0 0.0
2016-May-21 11:33N 34°07' E 135°08'0 0.0
2016-May-21 10:33N 34°07' E 135°08'0 0.0
2016-May-21 09:33N 34°07' E 135°08'0 0.0
2016-May-21 08:33N 34°07' E 135°08'0 0.0
2016-May-21 07:33N 34°07' E 135°08'0 0.0
2016-May-21 06:33N 34°07' E 135°08'1 0.5
2016-May-21 05:22N 34°07' E 135°07'0 0.0
2016-May-20 23:32N 34°07' E 135°07'2 1.7
2016-May-20 22:30N 34°09' E 135°06'1010.2
2016-May-20 21:33N 34°16' E 134°59'1010.1
2016-May-20 20:33N 34°26' E 135°00'1010.1
2016-May-20 19:33N 34°36' E 135°02'  

Dump ship's entire track history